Ana Sayfa
METAR-TAF:

METAR-TAF

Havaalanları :

Limni, Yunanistan

Enlem: 39-55N, Boylam: 025-14E, yükseklik: 5 m

Güncel hava durumu gözlemi

Rapor saat 22:50 UTC de 52 dakika önce yapıldı.
Sakin rüzgar
Sıcaklık 15°C
Nem 94%
Basınç 1017 hPa
Görüş mesafesi 10 km veya daha fazla
1500 m altında bulut yok ve kümülonimbus yok

METAR: LGLM 172250Z 00000KT CAVOK 15/14 Q1017

Saat: 02:42 (23:42 UTC)

Tahmin

Rapor saat 23:00 UTC de 42 dakika önce yapıldı.
Ayın 18'si saat 00 UTC'den ayın 18'si saat 09 UTC'ye kadar geçerli Tahmin
Rüzgar kuzeydoğudan 8 kt
Görüş mesafesi 10 km veya daha fazla
2000 ft yükseklikte az bulutlu
Olasılık 40% :
Geçici
ayın 18'si saat 03 UTC'den ayın 18'si saat 06 UTC'ye kadar
Görüş mesafesi: 4000 m
1000 ft yükseklikte parçalı bulutlu
Pus

TAF: LGLM 172300Z 1800/1809 04008KT 9999 FEW020 PROB40 TEMPO 1803/1806 4000 BR SCT010

4.000'den fazla havaalanı için hava durumu gözlemleri ve tahminleri (METAR ve TAF raporları).

Kullanılabilir istasyonlar harita üzerinde sarı ve kırmızı noktalarla gösterilir.

İstasyonun adını görmek için fareyi noktanın üzerinde gezdirin.

Sonrasında hava gözlem ve tahminlerini görmek için tıklayın.

Haritayı değiştirmek için: yaklaştırmak için siyah artı işaretli yeşil düğmeye ve uzaklaştırmak için de eksi işaretli düğmeye hızla tıklayın; bitişik haritalar için yeşil okları kullanın.


METAR-TAF: